Time;durP1;ratioP1;P1;durP2;ratioP2;P2;SDS_P1;SDS_P2;PMS_P1;PMS_P2;Temp;Humidity;BMP_temperature;BMP_pressure;BME280_temperature;BME280_humidity;BME280_pressure;Samples;Min_cycle;Max_cycle;Signal;HPM_P1;HPM_P2
2023/11/27 00:01:04;;;;;;;10.35;7.72;;;10.40;67.80;12.10;100669.00;;;;4989840;28;20243;-77
2023/11/27 00:03:33;;;;;;;8.05;7.25;;;10.40;67.90;12.10;100669.00;;;;4989725;28;20288;-77
2023/11/27 00:06:00;;;;;;;8.68;6.93;;;10.40;67.90;12.10;100661.00;;;;4985877;28;20229;-77
2023/11/27 00:08:26;;;;;;;8.73;7.82;;;10.40;67.80;12.10;100658.00;;;;4988923;28;20213;-77
2023/11/27 00:10:53;;;;;;;9.73;7.70;;;10.40;67.90;12.10;100653.00;;;;4989069;28;20205;-77
2023/11/27 00:13:22;;;;;;;8.55;7.30;;;10.40;68.00;12.10;100641.00;;;;4989742;28;20256;-77
2023/11/27 00:15:49;;;;;;;8.68;7.30;;;10.40;68.00;12.10;100649.00;;;;4989158;28;20205;-77
2023/11/27 00:18:16;;;;;;;9.43;7.97;;;10.40;68.00;12.10;100645.00;;;;4988954;28;20245;-77
2023/11/27 00:20:43;;;;;;;10.65;7.72;;;10.30;68.00;12.00;100638.00;;;;4976685;28;20217;-77
2023/11/27 00:23:10;;;;;;;9.00;6.50;;;10.30;67.90;12.00;100628.00;;;;4992754;28;20197;-77
2023/11/27 00:25:37;;;;;;;8.50;6.85;;;10.30;68.00;12.10;100623.00;;;;5001180;28;20259;-78
2023/11/27 00:28:04;;;;;;;8.05;6.68;;;10.30;68.10;12.00;100626.00;;;;5008093;28;21015;-76
2023/11/27 00:30:33;;;;;;;7.63;6.78;;;10.30;68.10;12.00;100627.00;;;;4996412;28;20201;-77
2023/11/27 00:33:00;;;;;;;8.98;7.68;;;10.30;68.10;12.10;100620.00;;;;4987639;28;20193;-77
2023/11/27 00:35:27;;;;;;;9.18;6.88;;;10.30;68.10;12.10;100607.00;;;;4987000;28;20208;-77
2023/11/27 00:37:54;;;;;;;10.15;7.05;;;10.30;68.10;12.10;100607.00;;;;4994215;28;20201;-77
2023/11/27 00:40:22;;;;;;;7.68;6.70;;;10.30;68.10;12.00;100595.00;;;;4998649;28;20280;-77
2023/11/27 00:42:49;;;;;;;7.03;6.05;;;10.30;68.20;12.00;100594.00;;;;4989115;28;20202;-77
2023/11/27 00:45:16;;;;;;;7.57;6.75;;;10.30;68.10;12.00;100588.00;;;;4988370;28;20210;-77
2023/11/27 00:47:44;;;;;;;9.07;6.10;;;10.30;68.20;12.00;100582.00;;;;4989331;28;20691;-77
2023/11/27 00:50:12;;;;;;;8.90;7.15;;;10.30;68.20;12.00;100580.00;;;;4988793;28;20208;-77
2023/11/27 00:52:38;;;;;;;7.97;6.35;;;10.30;68.20;12.00;100576.00;;;;4988991;28;20228;-77
2023/11/27 00:55:06;;;;;;;8.25;6.72;;;10.30;68.20;12.00;100569.00;;;;4992200;28;20543;-77
2023/11/27 00:57:33;;;;;;;9.07;6.97;;;10.30;68.20;12.00;100563.00;;;;4988013;28;20212;-77
2023/11/27 01:00:00;;;;;;;7.60;6.47;;;10.30;68.10;12.00;100563.00;;;;4988552;28;20198;-77
2023/11/27 01:02:27;;;;;;;7.90;6.72;;;10.30;68.10;12.00;100557.00;;;;4988019;28;20557;-77
2023/11/27 01:04:55;;;;;;;7.28;6.38;;;10.30;68.10;12.00;100548.00;;;;4987691;28;20586;-77
2023/11/27 01:07:22;;;;;;;8.40;6.22;;;10.30;68.10;12.00;100541.00;;;;4990519;28;20206;-77
2023/11/27 01:09:49;;;;;;;7.93;6.35;;;10.30;68.10;12.00;100540.00;;;;4989391;28;20197;-77
2023/11/27 01:12:16;;;;;;;7.50;6.30;;;10.20;67.90;11.90;100529.00;;;;4989233;28;20193;-77
2023/11/27 01:14:43;;;;;;;7.80;5.72;;;10.20;67.90;11.90;100530.00;;;;4986866;28;20235;-77
2023/11/27 01:17:10;;;;;;;7.53;6.03;;;10.20;68.20;11.90;100520.00;;;;4986396;28;20229;-77
2023/11/27 01:19:38;;;;;;;8.38;5.88;;;10.20;67.90;11.90;100513.00;;;;4983234;28;20230;-77
2023/11/27 01:22:07;;;;;;;7.43;5.95;;;10.20;67.90;11.90;100512.00;;;;4984495;28;20201;-77
2023/11/27 01:24:34;;;;;;;6.47;5.47;;;10.20;68.00;11.90;100513.00;;;;4970706;28;20194;-77
2023/11/27 01:27:01;;;;;;;6.53;5.10;;;10.20;68.00;11.90;100510.00;;;;4987285;28;20235;-77
2023/11/27 01:29:28;;;;;;;5.70;4.60;;;10.20;67.90;11.90;100499.00;;;;4986282;28;20268;-77
2023/11/27 01:31:55;;;;;;;5.45;4.32;;;10.10;67.90;11.90;100498.00;;;;4987259;28;20201;-77
2023/11/27 01:34:22;;;;;;;7.45;4.72;;;10.10;67.90;11.90;100499.00;;;;4978776;28;20240;-77
2023/11/27 01:36:49;;;;;;;7.65;4.95;;;10.10;67.90;11.90;100496.00;;;;4989453;28;20194;-78
2023/11/27 01:39:18;;;;;;;7.80;4.85;;;10.10;67.90;11.90;100489.00;;;;4995699;28;20690;-77
2023/11/27 01:41:45;;;;;;;5.45;4.53;;;10.10;67.90;11.90;100488.00;;;;4988262;28;20648;-77
2023/11/27 01:44:12;;;;;;;6.63;5.13;;;10.10;67.90;11.90;100485.00;;;;4987422;28;20205;-77
2023/11/27 01:46:48;;;;;;;8.60;4.53;;;10.20;68.00;11.80;100475.00;;;;4990002;28;20213;-77
2023/11/27 01:49:17;;;;;;;5.10;4.15;;;10.20;68.00;11.90;100469.00;;;;4991065;28;20209;-77
2023/11/27 01:51:45;;;;;;;7.70;3.92;;;10.20;67.90;11.90;100468.00;;;;4991284;28;20201;-77
2023/11/27 01:54:12;;;;;;;6.13;5.10;;;10.10;67.80;11.90;100463.00;;;;4990706;28;20202;-77
2023/11/27 01:56:47;;;;;;;7.00;4.68;;;10.10;67.80;11.80;100457.00;;;;4993795;28;20682;-77
2023/11/27 01:59:15;;;;;;;6.07;4.53;;;10.10;67.80;11.90;100451.00;;;;4991421;28;20197;-77
2023/11/27 02:01:43;;;;;;;9.73;4.75;;;10.10;67.80;11.90;100442.00;;;;4990705;28;20198;-77
2023/11/27 02:04:10;;;;;;;6.90;4.50;;;10.10;67.80;11.90;100438.00;;;;4990729;28;20206;-77
2023/11/27 02:06:37;;;;;;;5.18;4.03;;;10.10;67.80;11.90;100436.00;;;;4990608;28;20233;-77
2023/11/27 02:09:04;;;;;;;7.68;4.20;;;10.10;67.80;11.90;100427.00;;;;4990257;28;20572;-77
2023/11/27 02:11:32;;;;;;;5.28;4.03;;;10.10;67.70;11.90;100435.00;;;;4989669;28;20206;-77
2023/11/27 02:13:59;;;;;;;7.95;5.07;;;10.10;67.70;11.90;100429.00;;;;4989384;28;20209;-77
2023/11/27 02:16:28;;;;;;;7.15;4.50;;;10.10;67.80;11.90;100419.00;;;;4988897;28;20208;-77
2023/11/27 02:18:55;;;;;;;5.43;4.13;;;10.10;67.80;11.90;100418.00;;;;4989712;28;20233;-77
2023/11/27 02:21:22;;;;;;;5.82;4.28;;;10.10;67.80;11.90;100400.00;;;;4983975;28;20196;-77
2023/11/27 02:23:50;;;;;;;7.10;4.32;;;10.10;67.70;11.90;100410.00;;;;4990824;28;20224;-77
2023/11/27 02:26:17;;;;;;;6.72;4.35;;;10.10;67.70;11.90;100396.00;;;;4997645;28;20207;-77
2023/11/27 02:28:44;;;;;;;5.65;3.55;;;10.10;67.70;11.80;100395.00;;;;4995713;28;20193;-77
2023/11/27 02:31:11;;;;;;;4.60;4.05;;;10.10;67.60;11.80;100393.00;;;;4989050;28;20210;-76
2023/11/27 02:33:39;;;;;;;4.18;3.28;;;10.10;67.60;11.80;100375.00;;;;4989629;28;20205;-77
2023/11/27 02:36:06;;;;;;;5.97;3.75;;;10.10;67.60;11.80;100378.00;;;;4989076;28;20660;-77
2023/11/27 02:38:34;;;;;;;5.75;4.00;;;10.10;67.70;11.80;100368.00;;;;4989570;28;20205;-77
2023/11/27 02:41:03;;;;;;;5.15;4.03;;;10.00;67.70;11.80;100360.00;;;;4989917;28;20216;-77
2023/11/27 02:43:30;;;;;;;6.00;4.03;;;10.10;67.80;11.80;100360.00;;;;4993373;28;20193;-77
2023/11/27 02:45:57;;;;;;;5.57;3.78;;;10.10;67.80;11.80;100357.00;;;;4990051;28;20201;-77
2023/11/27 02:48:24;;;;;;;5.35;3.75;;;10.00;67.70;11.80;100342.00;;;;4989691;28;20622;-77
2023/11/27 02:50:51;;;;;;;4.82;3.80;;;10.00;67.70;11.80;100335.00;;;;4989206;28;20212;-77
2023/11/27 02:53:18;;;;;;;4.95;4.00;;;10.00;67.70;11.80;100322.00;;;;4989517;28;20198;-77
2023/11/27 02:55:46;;;;;;;6.53;4.28;;;10.10;67.80;11.80;100332.00;;;;4989522;28;20583;-77
2023/11/27 02:58:15;;;;;;;5.10;3.70;;;10.00;67.70;11.80;100321.00;;;;4994610;28;20213;-77
2023/11/27 03:00:42;;;;;;;6.65;4.00;;;10.00;67.70;11.80;100314.00;;;;4988998;28;20209;-77
2023/11/27 03:03:08;;;;;;;5.05;4.03;;;10.00;67.70;11.70;100305.00;;;;4989082;28;20878;-77
2023/11/27 03:05:36;;;;;;;4.60;3.67;;;10.00;67.70;11.70;100301.00;;;;4988035;28;20204;-77
2023/11/27 03:08:04;;;;;;;5.25;3.58;;;10.00;67.80;11.70;100293.00;;;;4988964;28;20229;-77
2023/11/27 03:10:32;;;;;;;4.32;3.58;;;10.00;67.90;11.70;100290.00;;;;4989788;28;20202;-77
2023/11/27 03:12:59;;;;;;;5.03;3.85;;;10.00;67.90;11.70;100282.00;;;;4989084;28;20212;-77
2023/11/27 03:15:27;;;;;;;5.60;4.32;;;10.00;68.00;11.70;100268.00;;;;4986178;28;20227;-77
2023/11/27 03:17:54;;;;;;;5.18;4.25;;;10.00;68.70;11.70;100270.00;;;;5000473;28;20208;-77
2023/11/27 03:20:21;;;;;;;6.00;4.10;;;10.00;68.00;11.70;100265.00;;;;4997435;28;20578;-77
2023/11/27 03:22:48;;;;;;;5.72;4.00;;;10.00;68.00;11.70;100258.00;;;;4978459;28;20202;-78
2023/11/27 03:25:15;;;;;;;5.43;3.85;;;10.00;67.90;11.70;100247.00;;;;4988587;28;20570;-77
2023/11/27 03:27:42;;;;;;;6.88;4.13;;;10.00;68.00;11.70;100241.00;;;;4989717;28;20226;-77
2023/11/27 03:30:10;;;;;;;4.90;3.97;;;10.00;68.00;11.70;100232.00;;;;4989055;28;20204;-77
2023/11/27 03:32:39;;;;;;;5.75;3.90;;;10.00;68.00;11.70;100238.00;;;;4988373;28;20212;-77
2023/11/27 03:35:08;;;;;;;5.22;4.03;;;10.00;68.10;11.70;100234.00;;;;4990607;28;20190;-77
2023/11/27 03:37:36;;;;;;;4.78;3.38;;;10.00;68.10;11.70;100233.00;;;;4999512;28;21223;-78
2023/11/27 03:40:03;;;;;;;4.38;2.88;;;10.00;68.10;11.70;100215.00;;;;4991085;28;20198;-78
2023/11/27 03:42:31;;;;;;;4.90;4.05;;;10.00;68.10;11.70;100207.00;;;;4989709;28;20194;-78
2023/11/27 03:44:59;;;;;;;4.28;3.25;;;10.00;68.10;11.70;100207.00;;;;4990114;28;20241;-77
2023/11/27 03:47:26;;;;;;;6.22;3.67;;;9.90;68.10;11.70;100203.00;;;;4986408;28;20594;-77
2023/11/27 03:49:54;;;;;;;4.13;3.17;;;10.00;68.20;11.70;100197.00;;;;4988578;28;20214;-77
2023/11/27 03:52:22;;;;;;;4.40;3.40;;;9.90;68.80;11.70;100195.00;;;;4987858;28;20210;-77
2023/11/27 03:54:49;;;;;;;4.30;3.15;;;9.90;68.20;11.70;100192.00;;;;4990017;28;20225;-78
2023/11/27 03:57:16;;;;;;;4.97;3.30;;;10.00;68.30;11.70;100183.00;;;;4988646;28;20205;-77
2023/11/27 03:59:43;;;;;;;3.88;3.10;;;10.00;68.20;11.70;100190.00;;;;4988510;28;20290;-78
2023/11/27 04:02:10;;;;;;;5.45;2.97;;;9.90;68.20;11.70;100180.00;;;;4987239;28;20210;-77
2023/11/27 04:04:38;;;;;;;3.22;2.75;;;10.00;68.20;11.70;100175.00;;;;4989854;28;20730;-77
2023/11/27 04:07:06;;;;;;;4.72;3.25;;;10.00;68.20;11.70;100177.00;;;;4992358;28;20766;-77
2023/11/27 04:09:34;;;;;;;3.55;3.22;;;10.00;68.20;11.70;100157.00;;;;4988650;28;20212;-77
2023/11/27 04:12:03;;;;;;;3.97;2.75;;;10.00;68.20;11.70;100155.00;;;;4987315;28;20571;-77
2023/11/27 04:14:30;;;;;;;4.30;2.95;;;10.00;68.20;11.70;100155.00;;;;4983483;28;20191;-78
2023/11/27 04:16:57;;;;;;;4.88;2.95;;;10.00;68.50;11.70;100155.00;;;;4988107;28;20212;-77
2023/11/27 04:19:26;;;;;;;3.80;2.65;;;10.00;68.10;11.60;100149.00;;;;4988060;28;20221;-77
2023/11/27 04:21:53;;;;;;;3.63;2.60;;;9.90;68.10;11.70;100150.00;;;;4982227;28;20197;-77
2023/11/27 04:24:21;;;;;;;3.30;2.60;;;10.00;68.20;11.60;100147.00;;;;4999469;28;20226;-77
2023/11/27 04:26:48;;;;;;;3.92;3.05;;;9.90;68.20;11.70;100147.00;;;;4994540;28;20478;-77
2023/11/27 04:29:15;;;;;;;2.58;2.28;;;9.90;68.20;11.70;100138.00;;;;4988468;28;20244;-77
2023/11/27 04:31:42;;;;;;;3.85;2.90;;;9.90;68.20;11.70;100132.00;;;;4989436;28;20293;-77
2023/11/27 04:34:09;;;;;;;3.58;2.78;;;9.90;68.20;11.70;100133.00;;;;4991272;28;20244;-78
2023/11/27 04:36:36;;;;;;;3.67;2.75;;;9.90;68.20;11.60;100129.00;;;;4991763;28;20196;-78
2023/11/27 04:39:04;;;;;;;3.53;2.95;;;9.90;68.10;11.70;100115.00;;;;4999692;28;20253;-78
2023/11/27 04:41:32;;;;;;;4.43;3.05;;;9.90;68.30;11.60;100119.00;;;;4985120;28;20217;-78
2023/11/27 04:43:59;;;;;;;3.22;2.67;;;9.90;68.30;11.70;100105.00;;;;4993298;28;20227;-77
2023/11/27 04:46:26;;;;;;;3.75;2.78;;;9.90;68.30;11.70;100115.00;;;;4988735;28;20212;-77
2023/11/27 04:48:53;;;;;;;3.15;2.35;;;9.90;68.30;11.70;100111.00;;;;4989050;28;20221;-77
2023/11/27 04:51:20;;;;;;;3.28;2.60;;;9.90;68.20;11.60;100102.00;;;;4991340;28;20216;-77
2023/11/27 04:53:47;;;;;;;3.60;2.60;;;9.90;68.10;11.60;100092.00;;;;5008258;28;20854;-78
2023/11/27 04:56:14;;;;;;;3.80;2.80;;;9.90;68.10;11.60;100092.00;;;;4991120;28;20205;-78
2023/11/27 04:58:43;;;;;;;2.75;2.33;;;9.90;68.00;11.60;100083.00;;;;4987886;28;20209;-77
2023/11/27 05:01:11;;;;;;;2.80;2.03;;;9.80;67.90;11.60;100085.00;;;;4989414;28;20229;-77
2023/11/27 05:03:38;;;;;;;2.63;1.92;;;9.80;67.90;11.60;100065.00;;;;4988982;28;20189;-77
2023/11/27 05:06:06;;;;;;;3.22;2.20;;;9.80;67.90;11.50;100067.00;;;;4988513;28;20248;-77
2023/11/27 05:08:33;;;;;;;3.42;2.35;;;9.80;68.00;11.50;100057.00;;;;4994450;28;20221;-77
2023/11/27 05:11:00;;;;;;;3.38;2.10;;;9.80;68.10;11.50;100055.00;;;;4969439;28;20214;-78
2023/11/27 05:13:27;;;;;;;2.42;1.90;;;9.80;68.10;11.50;100061.00;;;;4984931;28;20201;-77
2023/11/27 05:15:55;;;;;;;5.20;2.05;;;9.80;68.10;11.50;100041.00;;;;4989113;28;20580;-78
2023/11/27 05:18:23;;;;;;;2.53;1.92;;;9.80;68.10;11.50;100038.00;;;;4986693;28;20233;-77
2023/11/27 05:20:50;;;;;;;2.85;2.17;;;9.70;68.00;11.50;100028.00;;;;4988623;28;20213;-77
2023/11/27 05:23:16;;;;;;;2.20;1.70;;;9.70;68.00;11.50;100024.00;;;;4990057;28;20232;-78
2023/11/27 05:25:43;;;;;;;1.88;1.70;;;9.70;67.90;11.40;100020.00;;;;4993462;28;20205;-77
2023/11/27 05:28:10;;;;;;;2.42;2.00;;;9.70;67.90;11.40;100006.00;;;;4991243;28;20229;-77
2023/11/27 05:30:38;;;;;;;1.90;1.65;;;9.70;68.10;11.40;100004.00;;;;4990730;28;20198;-77
2023/11/27 05:33:06;;;;;;;2.30;1.83;;;9.70;68.10;11.40;99999.00;;;;4994550;28;20197;-78
2023/11/27 05:35:33;;;;;;;2.55;2.00;;;9.70;68.10;11.40;99997.00;;;;4991592;28;20569;-78
2023/11/27 05:38:00;;;;;;;2.50;2.30;;;9.70;68.10;11.40;99996.00;;;;5000076;28;20547;-78
2023/11/27 05:40:28;;;;;;;2.92;2.22;;;9.70;68.10;11.40;99992.00;;;;4994410;28;20228;-77
2023/11/27 05:42:55;;;;;;;3.00;2.13;;;9.70;68.10;11.40;99993.00;;;;4991111;28;20248;-78
2023/11/27 05:45:22;;;;;;;2.13;1.92;;;9.70;68.10;11.40;99990.00;;;;4991686;28;20194;-77
2023/11/27 05:47:49;;;;;;;2.55;1.98;;;9.70;68.10;11.40;99984.00;;;;4991488;28;20616;-77
2023/11/27 05:50:20;;;;;;;2.17;1.88;;;9.70;68.20;11.40;99978.00;;;;4992062;28;20571;-77
2023/11/27 05:52:48;;;;;;;2.65;2.22;;;9.60;68.10;11.40;99972.00;;;;4991334;28;20595;-77
2023/11/27 05:55:15;;;;;;;2.40;1.83;;;9.70;68.20;11.40;99966.00;;;;4991279;28;20639;-78
2023/11/27 05:57:42;;;;;;;2.10;1.60;;;9.70;68.20;11.40;99967.00;;;;4993460;28;20288;-77
2023/11/27 06:00:11;;;;;;;2.60;1.70;;;9.70;68.30;11.50;99949.00;;;;4991908;28;20202;-77
2023/11/27 06:02:38;;;;;;;2.50;2.20;;;9.70;68.30;11.50;99952.00;;;;4995428;28;20212;-77
2023/11/27 06:05:06;;;;;;;2.03;1.83;;;9.70;68.30;11.50;99952.00;;;;4991790;28;20229;-77
2023/11/27 06:07:34;;;;;;;3.30;2.35;;;9.70;68.30;11.50;99947.00;;;;4985840;28;20197;-77
2023/11/27 06:10:02;;;;;;;1.98;1.73;;;9.70;68.30;11.50;99943.00;;;;4985144;28;20198;-77
2023/11/27 06:12:29;;;;;;;2.40;2.20;;;9.70;68.30;11.50;99931.00;;;;4991143;28;20216;-77
2023/11/27 06:14:56;;;;;;;1.85;1.67;;;9.70;68.20;11.50;99930.00;;;;4991458;28;20204;-77
2023/11/27 06:17:23;;;;;;;2.08;1.60;;;9.70;68.20;11.50;99928.00;;;;4990616;28;20260;-76
2023/11/27 06:19:50;;;;;;;2.65;1.60;;;9.70;68.20;11.50;99926.00;;;;4986444;28;20607;-77
2023/11/27 06:22:17;;;;;;;2.03;1.83;;;9.70;68.10;11.50;99917.00;;;;4989424;28;20210;-77
2023/11/27 06:24:45;;;;;;;1.98;1.55;;;9.70;68.10;11.40;99910.00;;;;4989906;28;20561;-76
2023/11/27 06:27:12;;;;;;;2.30;1.85;;;9.70;68.10;11.50;99904.00;;;;4989787;28;20205;-77
2023/11/27 06:29:39;;;;;;;1.92;1.40;;;9.70;68.10;11.40;99908.00;;;;4991571;28;20606;-77
2023/11/27 06:32:07;;;;;;;1.58;1.17;;;9.70;68.10;11.40;99890.00;;;;4990127;28;21160;-77
2023/11/27 06:34:34;;;;;;;2.78;1.63;;;9.70;68.00;11.40;99893.00;;;;4994027;28;20208;-77
2023/11/27 06:37:01;;;;;;;1.58;1.40;;;9.70;68.10;11.40;99887.00;;;;4985957;28;20205;-75
2023/11/27 06:39:29;;;;;;;1.60;1.40;;;9.70;68.10;11.40;99883.00;;;;4989804;28;20201;-74
2023/11/27 06:41:58;;;;;;;2.03;1.40;;;9.60;68.00;11.40;99878.00;;;;4989641;28;20210;-74
2023/11/27 06:44:25;;;;;;;2.10;1.40;;;9.60;68.00;11.40;99872.00;;;;4989708;28;20206;-75
2023/11/27 06:46:52;;;;;;;1.58;1.48;;;9.60;68.00;11.40;99865.00;;;;4990373;28;20198;-75
2023/11/27 06:49:19;;;;;;;1.80;1.30;;;9.70;68.10;11.40;99877.00;;;;4984583;28;20236;-75
2023/11/27 06:51:46;;;;;;;1.40;1.30;;;9.60;68.00;11.40;99866.00;;;;4988915;28;20220;-75
2023/11/27 06:54:13;;;;;;;2.05;1.40;;;9.60;68.00;11.40;99863.00;;;;4988132;28;20201;-75
2023/11/27 06:56:41;;;;;;;1.67;1.27;;;9.60;68.00;11.40;99857.00;;;;4990302;28;20202;-75
2023/11/27 06:59:10;;;;;;;1.88;1.20;;;9.70;68.10;11.40;99846.00;;;;4988439;28;20228;-75
2023/11/27 07:01:41;;;;;;;2.03;1.40;;;9.60;68.00;11.40;99841.00;;;;4988521;28;20256;-76
2023/11/27 07:04:08;;;;;;;1.73;1.30;;;9.60;68.00;11.40;99834.00;;;;4990860;28;20208;-75
2023/11/27 07:06:36;;;;;;;2.20;1.20;;;9.60;68.00;11.40;99831.00;;;;4990119;28;20660;-75
2023/11/27 07:09:04;;;;;;;1.65;1.42;;;9.60;68.20;11.40;99823.00;;;;4990779;28;20229;-75
2023/11/27 07:11:32;;;;;;;2.88;1.65;;;9.60;68.20;11.40;99820.00;;;;4990497;28;20206;-75
2023/11/27 07:13:59;;;;;;;1.80;1.70;;;9.60;68.10;11.40;99817.00;;;;4990459;28;20300;-75
2023/11/27 07:16:28;;;;;;;2.15;1.90;;;9.60;68.10;11.40;99806.00;;;;4989713;28;20385;-75
2023/11/27 07:18:57;;;;;;;1.77;1.33;;;9.60;68.10;11.40;99806.00;;;;4988358;28;20256;-75
2023/11/27 07:21:25;;;;;;;1.58;1.25;;;9.60;68.10;11.40;99806.00;;;;4978976;28;20659;-75
2023/11/27 07:23:53;;;;;;;1.65;1.23;;;9.60;68.20;11.40;99809.00;;;;4989885;28;20285;-75
2023/11/27 07:26:20;;;;;;;2.10;1.58;;;9.60;68.10;11.40;99801.00;;;;4990041;28;20213;-75
2023/11/27 07:28:48;;;;;;;2.30;1.63;;;9.60;68.10;11.40;99799.00;;;;4989016;28;20233;-75
2023/11/27 07:31:16;;;;;;;3.78;1.77;;;9.60;68.10;11.40;99792.00;;;;4989722;28;20652;-75
2023/11/27 07:33:45;;;;;;;2.55;2.00;;;9.60;68.10;11.40;99787.00;;;;4982168;28;20198;-75
2023/11/27 07:36:12;;;;;;;1.98;1.77;;;9.60;68.20;11.40;99786.00;;;;4985604;28;20214;-75
2023/11/27 07:38:41;;;;;;;2.22;1.98;;;9.60;68.20;11.40;99777.00;;;;4989458;28;20567;-75
2023/11/27 07:41:08;;;;;;;1.92;1.75;;;9.60;68.90;11.40;99778.00;;;;4989739;28;20272;-75
2023/11/27 07:43:36;;;;;;;2.17;1.70;;;9.60;68.30;11.40;99771.00;;;;4972461;28;20237;-75
2023/11/27 07:46:05;;;;;;;3.00;1.58;;;9.60;68.30;11.40;99765.00;;;;4979394;28;20197;-75
2023/11/27 07:48:33;;;;;;;2.10;1.90;;;9.60;68.30;11.40;99765.00;;;;4971006;28;20226;-75
2023/11/27 07:51:05;;;;;;;2.45;1.98;;;9.60;68.30;11.40;99751.00;;;;5001988;28;20672;-75
2023/11/27 07:53:32;;;;;;;1.92;1.70;;;9.60;68.30;11.40;99757.00;;;;4991656;28;20200;-75
2023/11/27 07:55:59;;;;;;;2.33;2.13;;;9.60;68.20;11.40;99747.00;;;;4996141;28;20201;-75
2023/11/27 07:58:26;;;;;;;2.33;2.10;;;9.60;68.30;11.50;99752.00;;;;4977685;28;20676;-75
2023/11/27 08:00:53;;;;;;;2.00;1.80;;;9.60;68.30;11.50;99742.00;;;;4989702;28;20204;-75
2023/11/27 08:03:21;;;;;;;2.33;2.13;;;9.60;68.40;11.50;99740.00;;;;4989286;28;20220;-75
2023/11/27 08:05:48;;;;;;;2.95;2.10;;;9.70;68.40;11.50;99739.00;;;;4989953;28;20206;-75
2023/11/27 08:08:17;;;;;;;2.40;2.05;;;9.60;68.40;11.50;99732.00;;;;4988939;28;20248;-75
2023/11/27 08:10:44;;;;;;;2.35;1.92;;;9.60;68.40;11.50;99731.00;;;;4989625;28;21092;-75
2023/11/27 08:13:12;;;;;;;2.88;2.28;;;9.70;68.50;11.50;99722.00;;;;4989212;28;20210;-75
2023/11/27 08:15:39;;;;;;;2.25;2.05;;;9.70;68.40;11.50;99709.00;;;;4989018;28;20240;-75
2023/11/27 08:18:06;;;;;;;2.22;1.90;;;9.70;68.40;11.50;99710.00;;;;4987623;28;20213;-75
2023/11/27 08:20:38;;;;;;;4.30;1.85;;;9.70;68.40;11.50;99702.00;;;;4988591;28;20293;-75
2023/11/27 08:23:05;;;;;;;2.28;2.08;;;9.70;68.40;11.50;99703.00;;;;4989229;28;20202;-75
2023/11/27 08:25:34;;;;;;;2.08;1.88;;;9.70;68.30;11.50;99700.00;;;;4986894;28;20209;-75
2023/11/27 08:28:02;;;;;;;2.20;2.00;;;9.70;68.30;11.50;99702.00;;;;4988963;28;20209;-75
2023/11/27 08:30:32;;;;;;;1.70;1.60;;;9.70;68.30;11.50;99690.00;;;;4994560;28;20220;-75
2023/11/27 08:33:00;;;;;;;2.38;2.13;;;9.70;68.30;11.50;99689.00;;;;4999084;28;20197;-75
2023/11/27 08:35:27;;;;;;;2.65;2.08;;;9.70;68.30;11.50;99686.00;;;;4989085;28;20202;-75
2023/11/27 08:37:55;;;;;;;2.30;2.10;;;9.70;68.30;11.50;99678.00;;;;5003736;28;20234;-75
2023/11/27 08:40:22;;;;;;;2.55;2.10;;;9.70;68.30;11.50;99675.00;;;;4994435;28;20233;-75
2023/11/27 08:42:50;;;;;;;2.60;2.00;;;9.70;68.30;11.50;99677.00;;;;4988961;28;20210;-75
2023/11/27 08:45:18;;;;;;;2.20;2.00;;;9.70;68.30;11.50;99683.00;;;;4989065;28;20652;-75
2023/11/27 08:47:50;;;;;;;2.13;1.92;;;9.70;68.20;11.50;99676.00;;;;4988443;28;20228;-75
2023/11/27 08:50:18;;;;;;;2.10;1.90;;;9.70;68.30;11.50;99673.00;;;;4969615;28;20226;-75
2023/11/27 08:52:46;;;;;;;2.20;2.00;;;9.70;68.30;11.50;99672.00;;;;4984468;28;20549;-76
2023/11/27 08:55:18;;;;;;;3.10;2.15;;;9.70;68.40;11.50;99672.00;;;;4987909;28;20205;-75
2023/11/27 08:57:46;;;;;;;2.22;2.03;;;9.70;68.40;11.50;99670.00;;;;4992609;28;20548;-75
2023/11/27 09:00:18;;;;;;;2.08;1.92;;;9.70;68.30;11.50;99661.00;;;;4992658;28;20197;-76
2023/11/27 09:02:46;;;;;;;2.72;2.05;;;9.70;68.40;11.50;99662.00;;;;4993117;28;20194;-75
2023/11/27 09:05:13;;;;;;;2.55;1.80;;;9.70;68.50;11.50;99656.00;;;;4991544;28;20198;-75
2023/11/27 09:07:41;;;;;;;2.90;2.60;;;9.70;68.50;11.50;99647.00;;;;4981067;28;20202;-75
2023/11/27 09:10:09;;;;;;;1.98;1.77;;;9.70;68.60;11.60;99647.00;;;;4982043;28;20696;-75
2023/11/27 09:12:36;;;;;;;2.80;2.15;;;9.70;68.60;11.60;99652.00;;;;4991912;28;20206;-75
2023/11/27 09:15:05;;;;;;;3.88;1.90;;;9.70;68.60;11.60;99643.00;;;;4992526;28;20201;-75
2023/11/27 09:17:37;;;;;;;2.20;1.95;;;9.70;68.50;11.60;99640.00;;;;4992490;28;20276;-75
2023/11/27 09:20:06;;;;;;;2.10;1.90;;;9.70;68.40;11.60;99634.00;;;;4991273;28;21002;-75
2023/11/27 09:22:33;;;;;;;3.00;2.20;;;9.80;68.50;11.60;99627.00;;;;5005788;28;20243;-75
2023/11/27 09:25:00;;;;;;;2.17;1.98;;;9.80;68.60;11.60;99630.00;;;;4989724;28;20278;-75
2023/11/27 09:27:28;;;;;;;2.85;2.25;;;9.80;68.60;11.60;99618.00;;;;4991900;28;20210;-75
2023/11/27 09:29:55;;;;;;;2.22;2.03;;;9.80;68.70;11.70;99620.00;;;;4972654;28;20229;-75
2023/11/27 09:32:22;;;;;;;2.75;1.88;;;9.80;68.70;11.70;99618.00;;;;4973653;28;20293;-75
2023/11/27 09:34:50;;;;;;;2.72;1.92;;;9.80;68.70;11.70;99611.00;;;;4990767;28;20210;-75
2023/11/27 09:37:17;;;;;;;2.70;2.47;;;9.80;68.60;11.70;99606.00;;;;4990974;28;20216;-75
2023/11/27 09:39:44;;;;;;;2.28;1.88;;;9.80;68.60;11.70;99603.00;;;;4992648;28;20582;-75
2023/11/27 09:42:11;;;;;;;3.05;2.15;;;9.90;68.70;11.70;99597.00;;;;4991456;28;20338;-75
2023/11/27 09:44:39;;;;;;;2.15;1.95;;;9.90;68.70;11.70;99595.00;;;;4991282;28;20210;-75
2023/11/27 09:47:09;;;;;;;2.33;2.10;;;9.90;68.70;11.70;99592.00;;;;4991927;28;20293;-75
2023/11/27 09:49:48;;;;;;;2.40;1.80;;;9.90;68.70;11.70;99588.00;;;;4991900;28;20778;-75
2023/11/27 09:52:30;;;;;;;1.80;1.65;;;9.90;68.60;11.70;99580.00;;;;4990946;28;20202;-75
2023/11/27 09:55:04;;;;;;;1.98;1.77;;;9.90;68.60;11.70;99575.00;;;;4992153;28;20711;-76
2023/11/27 09:57:34;;;;;;;2.28;1.83;;;9.90;68.60;11.80;99570.00;;;;4993596;28;20193;-75
2023/11/27 10:00:01;;;;;;;2.90;1.50;;;9.90;68.60;11.80;99569.00;;;;4997959;28;20769;-76
2023/11/27 10:02:30;;;;;;;2.17;1.98;;;9.90;69.20;11.80;99551.00;;;;4990925;28;20293;-75
2023/11/27 10:05:04;;;;;;;2.03;1.83;;;9.90;68.60;11.80;99555.00;;;;4990200;28;20695;-76
2023/11/27 10:07:35;;;;;;;2.13;1.92;;;9.90;68.60;11.80;99548.00;;;;4991304;28;20206;-75
2023/11/27 10:10:04;;;;;;;1.75;1.65;;;10.00;68.60;11.80;99546.00;;;;4991127;28;20235;-75
2023/11/27 10:12:33;;;;;;;1.65;1.55;;;9.90;68.60;11.80;99545.00;;;;4991306;28;20214;-75
2023/11/27 10:15:02;;;;;;;2.00;1.80;;;9.90;68.60;11.80;99543.00;;;;4989592;28;20252;-75
2023/11/27 10:17:29;;;;;;;1.80;1.65;;;10.00;68.70;11.90;99540.00;;;;4991535;28;20288;-75
2023/11/27 10:19:58;;;;;;;2.10;1.73;;;10.00;68.70;11.90;99526.00;;;;4990555;28;20707;-75
2023/11/27 10:22:32;;;;;;;1.77;1.67;;;10.00;68.70;11.90;99519.00;;;;4990201;28;20730;-76
2023/11/27 10:25:00;;;;;;;1.98;1.80;;;10.00;68.70;11.90;99513.00;;;;4990899;28;20260;-76
2023/11/27 10:27:27;;;;;;;1.80;1.70;;;10.00;68.70;11.90;99512.00;;;;4990592;28;20205;-75
2023/11/27 10:29:54;;;;;;;2.10;1.75;;;10.00;68.70;11.90;99506.00;;;;4989693;28;20240;-75
2023/11/27 10:32:24;;;;;;;2.17;1.92;;;10.10;68.80;11.90;99517.00;;;;4989896;28;20216;-75
2023/11/27 10:34:52;;;;;;;1.88;1.67;;;10.10;68.80;12.00;99514.00;;;;4990600;28;20684;-75
2023/11/27 10:37:22;;;;;;;2.85;2.22;;;10.10;68.80;12.00;99500.00;;;;4991719;28;20694;-76
2023/11/27 10:39:50;;;;;;;1.67;1.58;;;10.10;68.80;12.00;99502.00;;;;4991133;28;20206;-75
2023/11/27 10:42:21;;;;;;;2.55;1.90;;;10.10;68.80;12.00;99493.00;;;;4984054;28;20226;-75
2023/11/27 10:44:50;;;;;;;1.60;1.50;;;10.10;68.90;12.00;99487.00;;;;4972140;28;20191;-75
2023/11/27 10:47:19;;;;;;;1.50;1.20;;;10.20;68.90;12.00;99476.00;;;;4973171;28;20253;-75
2023/11/27 10:49:47;;;;;;;2.00;1.83;;;10.20;68.90;12.10;99474.00;;;;4990416;28;20230;-75
2023/11/27 10:52:16;;;;;;;1.83;1.67;;;10.20;68.80;12.10;99475.00;;;;4989902;28;20577;-75
2023/11/27 10:54:48;;;;;;;1.90;1.70;;;10.20;68.80;12.10;99471.00;;;;4990301;28;20213;-75
2023/11/27 10:57:22;;;;;;;1.92;1.70;;;10.20;68.70;12.10;99475.00;;;;4988353;28;20284;-76